createdAt,value
2018-11-11T00:00:56.634Z,107.70
2018-11-11T00:03:25.031Z,120.40
2018-11-11T00:05:53.424Z,120.23
2018-11-11T00:08:21.832Z,118.70
2018-11-11T00:10:50.238Z,141.40
2018-11-11T00:13:18.692Z,142.67
2018-11-11T00:15:47.085Z,140.73
2018-11-11T00:18:15.509Z,144.67
2018-11-11T00:20:43.916Z,138.27
2018-11-11T00:23:12.314Z,142.30
2018-11-11T00:25:40.692Z,145.43
2018-11-11T00:28:09.087Z,144.30
2018-11-11T00:30:37.492Z,140.03
2018-11-11T00:33:06.611Z,140.23
2018-11-11T00:35:35.024Z,135.30
2018-11-11T00:38:03.442Z,137.77
2018-11-11T00:40:32.089Z,129.07
2018-11-11T00:43:00.516Z,130.43
2018-11-11T00:45:28.920Z,131.03
2018-11-11T00:47:57.303Z,139.10
2018-11-11T00:50:25.707Z,139.73
2018-11-11T00:52:54.092Z,135.03
2018-11-11T00:55:22.510Z,130.67
2018-11-11T00:57:50.894Z,129.33
2018-11-11T01:00:20.031Z,135.10
2018-11-11T01:02:48.522Z,134.70
2018-11-11T01:05:16.916Z,125.37
2018-11-11T01:07:45.965Z,133.93
2018-11-11T01:10:15.748Z,134.40
2018-11-11T01:12:44.712Z,137.70
2018-11-11T01:15:14.353Z,133.87
2018-11-11T01:17:42.869Z,131.00
2018-11-11T01:20:12.648Z,129.37
2018-11-11T01:22:41.219Z,137.03
2018-11-11T01:25:12.480Z,122.73
2018-11-11T01:27:40.992Z,121.07
2018-11-11T01:30:09.380Z,117.40
2018-11-11T01:32:38.335Z,120.00
2018-11-11T01:35:08.879Z,112.27
2018-11-11T01:37:37.561Z,93.87
2018-11-11T01:40:06.875Z,99.23
2018-11-11T01:42:35.309Z,101.03
2018-11-11T01:45:04.414Z,98.60
2018-11-11T01:47:33.255Z,98.33
2018-11-11T01:50:01.968Z,96.73
2018-11-11T01:52:31.315Z,96.23
2018-11-11T01:55:00.183Z,93.37
2018-11-11T01:57:29.455Z,91.77
2018-11-11T01:59:58.015Z,94.13
2018-11-11T02:02:27.893Z,89.30
2018-11-11T02:04:56.330Z,87.60
2018-11-11T02:07:24.915Z,84.73
2018-11-11T02:09:53.865Z,80.87
2018-11-11T02:12:23.087Z,80.93
2018-11-11T02:14:52.151Z,77.13
2018-11-11T02:17:20.603Z,77.57
2018-11-11T02:19:49.103Z,78.53
2018-11-11T02:22:18.070Z,76.20
2018-11-11T02:24:47.019Z,74.67
2018-11-11T02:27:15.916Z,75.43
2018-11-11T02:29:44.427Z,75.53
2018-11-11T02:32:13.013Z,78.50
2018-11-11T02:34:41.951Z,72.13
2018-11-11T02:37:11.091Z,68.43
2018-11-11T02:39:40.004Z,71.30
2018-11-11T02:42:08.618Z,71.80
2018-11-11T02:44:37.656Z,69.33
2018-11-11T02:47:06.804Z,67.37
2018-11-11T02:49:35.439Z,63.30
2018-11-11T02:52:03.961Z,61.50
2018-11-11T02:54:32.563Z,65.60
2018-11-11T02:57:01.728Z,62.70
2018-11-11T02:59:30.515Z,62.17
2018-11-11T03:01:59.433Z,61.20
2018-11-11T03:04:27.946Z,59.30
2018-11-11T03:06:56.538Z,62.90
2018-11-11T03:09:25.584Z,60.57
2018-11-11T03:11:54.689Z,59.03
2018-11-11T03:14:23.064Z,58.63
2018-11-11T03:16:51.769Z,57.37
2018-11-11T03:19:20.156Z,55.27
2018-11-11T03:21:48.680Z,55.37
2018-11-11T03:24:17.708Z,53.03
2018-11-11T03:26:47.082Z,54.57
2018-11-11T03:29:16.395Z,52.97
2018-11-11T03:31:44.853Z,50.03
2018-11-11T03:34:13.403Z,30.63
2018-11-11T03:36:41.786Z,32.00
2018-11-11T03:39:10.730Z,31.97
2018-11-11T03:41:39.647Z,25.63
2018-11-11T03:44:09.369Z,26.17
2018-11-11T03:46:37.845Z,22.80
2018-11-11T03:49:06.337Z,22.20
2018-11-11T03:51:34.736Z,20.93
2018-11-11T03:54:03.119Z,21.00
2018-11-11T03:56:31.546Z,18.37
2018-11-11T03:58:59.943Z,19.43
2018-11-11T04:01:28.332Z,17.70
2018-11-11T04:03:56.741Z,16.80
2018-11-11T04:06:25.409Z,20.50
2018-11-11T04:08:53.828Z,16.50
2018-11-11T04:11:22.310Z,17.20
2018-11-11T04:13:50.882Z,16.33
2018-11-11T04:16:19.283Z,14.30
2018-11-11T04:18:47.686Z,15.53
2018-11-11T04:21:16.140Z,13.00
2018-11-11T04:23:44.523Z,12.93
2018-11-11T04:26:12.966Z,12.27
2018-11-11T04:28:41.378Z,11.53
2018-11-11T04:31:09.746Z,11.97
2018-11-11T04:33:38.211Z,10.27
2018-11-11T04:36:06.628Z,9.90
2018-11-11T04:38:35.020Z,9.83
2018-11-11T04:41:03.408Z,8.73
2018-11-11T04:43:31.787Z,8.97
2018-11-11T04:46:00.188Z,8.63
2018-11-11T04:48:28.603Z,7.77
2018-11-11T04:50:56.990Z,7.57
2018-11-11T04:53:25.384Z,7.47
2018-11-11T04:55:53.765Z,7.03
2018-11-11T04:58:22.232Z,6.10
2018-11-11T05:00:50.623Z,6.30
2018-11-11T05:03:19.039Z,6.10
2018-11-11T05:05:47.450Z,6.50
2018-11-11T05:08:15.827Z,5.43
2018-11-11T05:10:44.317Z,5.47
2018-11-11T05:13:12.687Z,4.83
2018-11-11T05:15:41.092Z,5.10
2018-11-11T05:18:09.465Z,5.10
2018-11-11T05:20:37.867Z,5.50
2018-11-11T05:23:06.625Z,4.20
2018-11-11T05:25:34.998Z,4.37
2018-11-11T05:28:03.499Z,4.27
2018-11-11T05:30:31.891Z,3.70
2018-11-11T05:33:00.270Z,4.00
2018-11-11T05:35:28.663Z,3.90
2018-11-11T05:37:57.025Z,3.10
2018-11-11T05:40:25.424Z,3.13
2018-11-11T05:42:53.792Z,2.77
2018-11-11T05:45:22.179Z,3.50
2018-11-11T05:47:50.641Z,3.40
2018-11-11T05:50:19.031Z,2.53
2018-11-11T05:52:47.856Z,2.77
2018-11-11T05:55:16.395Z,2.57
2018-11-11T05:57:44.787Z,2.50
2018-11-11T06:00:14.376Z,2.70
2018-11-11T06:02:42.966Z,2.57
2018-11-11T06:05:12.683Z,2.80
2018-11-11T06:07:41.083Z,2.60
2018-11-11T06:10:11.095Z,2.23
2018-11-11T06:12:39.498Z,2.53
2018-11-11T06:15:09.497Z,2.10
2018-11-11T06:17:38.274Z,2.40
2018-11-11T06:20:08.769Z,2.00
2018-11-11T06:22:37.175Z,2.40
2018-11-11T06:25:06.102Z,1.87
2018-11-11T06:27:34.565Z,2.50
2018-11-11T06:30:02.879Z,2.13
2018-11-11T06:32:32.383Z,2.27
2018-11-11T06:35:00.868Z,2.00
2018-11-11T06:37:29.265Z,2.03
2018-11-11T06:39:57.669Z,2.00
2018-11-11T06:42:26.068Z,2.00
2018-11-11T06:44:54.581Z,2.57
2018-11-11T06:47:22.962Z,2.07
2018-11-11T06:49:51.396Z,1.50
2018-11-11T06:52:19.810Z,1.90
2018-11-11T06:54:48.214Z,1.73
2018-11-11T06:57:16.601Z,2.17
2018-11-11T06:59:44.999Z,1.90
2018-11-11T07:02:13.381Z,1.50
2018-11-11T07:04:41.766Z,1.40
2018-11-11T07:07:10.147Z,1.63
2018-11-11T07:09:38.529Z,1.77
2018-11-11T07:12:06.931Z,1.67
2018-11-11T07:14:35.308Z,2.43
2018-11-11T07:17:03.695Z,1.50
2018-11-11T07:19:32.207Z,1.50
2018-11-11T07:22:00.619Z,1.20
2018-11-11T07:24:29.104Z,1.30
2018-11-11T07:26:57.511Z,1.80
2018-11-11T07:29:25.886Z,2.40
2018-11-11T07:31:54.301Z,3.77
2018-11-11T07:34:22.674Z,5.23
2018-11-11T07:36:51.076Z,6.23
2018-11-11T07:39:19.555Z,6.37
2018-11-11T07:41:47.949Z,7.03
2018-11-11T07:44:16.396Z,6.53
2018-11-11T07:46:44.795Z,6.17
2018-11-11T07:49:13.177Z,6.50
2018-11-11T07:51:41.737Z,6.40
2018-11-11T07:54:10.167Z,7.73
2018-11-11T07:56:38.559Z,8.43
2018-11-11T07:59:07.036Z,9.27
2018-11-11T08:01:35.434Z,8.73
2018-11-11T08:04:03.931Z,8.20
2018-11-11T08:06:32.315Z,9.37
2018-11-11T08:09:00.700Z,8.13
2018-11-11T08:11:40.630Z,7.83
2018-11-11T08:14:09.739Z,7.37
2018-11-11T08:16:38.212Z,9.07
2018-11-11T08:19:06.585Z,9.33
2018-11-11T08:21:34.978Z,9.70
2018-11-11T08:24:03.399Z,9.90
2018-11-11T08:26:31.807Z,9.47
2018-11-11T08:29:00.220Z,10.13
2018-11-11T08:31:28.748Z,10.33
2018-11-11T08:33:57.148Z,9.80
2018-11-11T08:36:25.915Z,9.27
2018-11-11T08:38:54.440Z,8.20
2018-11-11T08:41:22.859Z,7.70
2018-11-11T08:43:51.271Z,13.57
2018-11-11T08:46:19.676Z,16.60
2018-11-11T08:48:48.068Z,16.47
2018-11-11T08:51:16.495Z,16.10
2018-11-11T08:53:44.895Z,15.17
2018-11-11T08:56:13.410Z,16.07
2018-11-11T08:58:41.860Z,20.17
2018-11-11T09:01:10.270Z,21.20
2018-11-11T09:03:38.915Z,30.57
2018-11-11T09:06:07.341Z,29.87
2018-11-11T09:08:35.764Z,23.87
2018-11-11T09:11:04.243Z,21.57
2018-11-11T09:13:32.788Z,21.50
2018-11-11T09:16:01.452Z,22.00
2018-11-11T09:18:29.830Z,20.97
2018-11-11T09:20:58.456Z,18.33
2018-11-11T09:23:26.997Z,17.97
2018-11-11T09:25:55.399Z,16.07
2018-11-11T09:28:23.781Z,15.07
2018-11-11T09:30:52.199Z,14.83
2018-11-11T09:33:20.820Z,13.67
2018-11-11T09:35:49.235Z,12.80
2018-11-11T09:38:18.364Z,11.20
2018-11-11T09:40:47.748Z,13.77
2018-11-11T09:43:16.217Z,12.40
2018-11-11T09:45:44.695Z,10.67
2018-11-11T09:48:13.118Z,13.60
2018-11-11T09:50:41.564Z,17.17
2018-11-11T09:53:09.992Z,19.83
2018-11-11T09:55:38.502Z,45.60
2018-11-11T09:58:06.947Z,53.90
2018-11-11T10:00:35.443Z,50.57
2018-11-11T10:03:10.821Z,56.77
2018-11-11T10:05:49.273Z,59.17
2018-11-11T10:08:25.619Z,57.00
2018-11-11T10:10:58.328Z,55.57
2018-11-11T10:13:34.469Z,49.37
2018-11-11T10:16:08.017Z,50.27
2018-11-11T10:18:40.943Z,50.63
2018-11-11T10:23:18.448Z,49.73
2018-11-11T10:25:54.912Z,58.63
2018-11-11T10:28:32.236Z,61.60
2018-11-11T10:31:05.983Z,61.67
2018-11-11T10:33:40.665Z,68.20
2018-11-11T10:36:28.280Z,68.67
2018-11-11T10:39:00.397Z,69.00
2018-11-11T10:42:04.669Z,67.03
2018-11-11T10:44:39.188Z,63.50
2018-11-11T10:47:13.233Z,63.63
2018-11-11T10:50:02.902Z,66.77
2018-11-11T10:52:31.449Z,64.93
2018-11-11T10:54:59.883Z,58.07
2018-11-11T10:57:28.494Z,52.67
2018-11-11T10:59:56.893Z,46.70
2018-11-11T11:02:32.447Z,37.97
2018-11-11T11:05:06.175Z,40.90
2018-11-11T11:07:34.632Z,38.47
2018-11-11T11:10:03.055Z,38.97
2018-11-11T11:12:31.454Z,38.03
2018-11-11T11:15:00.033Z,50.97
2018-11-11T11:17:28.434Z,59.03
2018-11-11T11:19:56.835Z,43.23
2018-11-11T11:22:25.234Z,39.80
2018-11-11T11:24:53.659Z,48.00
2018-11-11T11:27:22.142Z,55.03
2018-11-11T11:29:51.090Z,49.23
2018-11-11T11:32:20.376Z,52.93
2018-11-11T11:34:48.928Z,54.00
2018-11-11T11:37:17.332Z,57.10
2018-11-11T11:39:45.855Z,50.27
2018-11-11T11:42:14.261Z,49.70
2018-11-11T11:44:42.664Z,46.40
2018-11-11T11:47:11.236Z,42.27
2018-11-11T11:49:39.679Z,36.83
2018-11-11T11:52:08.121Z,35.00
2018-11-11T11:54:36.519Z,37.07
2018-11-11T11:57:05.115Z,32.03
2018-11-11T11:59:33.500Z,31.73
2018-11-11T12:02:01.946Z,30.00
2018-11-11T12:04:30.345Z,31.20
2018-11-11T12:06:58.793Z,29.60
2018-11-11T12:09:27.171Z,27.73
2018-11-11T12:11:55.595Z,29.03
2018-11-11T12:14:23.998Z,26.53
2018-11-11T12:16:52.429Z,23.73
2018-11-11T12:19:20.813Z,25.57
2018-11-11T12:21:49.191Z,24.90
2018-11-11T12:24:17.625Z,24.33
2018-11-11T12:26:46.600Z,23.00
2018-11-11T12:29:15.002Z,22.10
2018-11-11T12:31:44.316Z,20.57
2018-11-11T12:34:13.057Z,20.37
2018-11-11T12:36:41.551Z,21.13
2018-11-11T12:39:11.715Z,23.33
2018-11-11T12:41:40.140Z,22.03
2018-11-11T12:44:10.479Z,21.30
2018-11-11T12:46:38.991Z,20.13
2018-11-11T12:49:07.902Z,18.37
2018-11-11T12:51:36.818Z,18.17
2018-11-11T12:54:05.260Z,17.63
2018-11-11T12:56:33.678Z,17.67
2018-11-11T12:59:02.095Z,16.53
2018-11-11T13:01:30.524Z,19.20
2018-11-11T13:03:58.935Z,14.13
2018-11-11T13:06:27.378Z,14.70
2018-11-11T13:08:55.779Z,35.57
2018-11-11T13:11:24.270Z,41.77
2018-11-11T13:13:52.665Z,38.53
2018-11-11T13:16:24.736Z,33.47
2018-11-11T13:18:53.509Z,31.67
2018-11-11T13:21:22.070Z,30.27
2018-11-11T13:23:50.507Z,30.87
2018-11-11T13:26:18.943Z,27.50
2018-11-11T13:28:47.464Z,27.17
2018-11-11T13:31:15.867Z,26.27
2018-11-11T13:33:44.259Z,23.73
2018-11-11T13:36:12.664Z,25.10
2018-11-11T13:38:41.114Z,21.70
2018-11-11T13:41:10.158Z,22.33
2018-11-11T13:43:38.935Z,21.27
2018-11-11T13:46:07.633Z,21.03
2018-11-11T13:48:36.487Z,33.47
2018-11-11T13:51:05.319Z,54.03
2018-11-11T13:53:34.446Z,125.70
2018-11-11T13:56:03.288Z,71.53
2018-11-11T13:58:31.951Z,72.27
2018-11-11T14:01:01.900Z,73.43
2018-11-11T14:03:30.738Z,63.10
2018-11-11T14:05:59.223Z,53.90
2018-11-11T14:08:28.593Z,52.57
2018-11-11T14:10:57.708Z,52.30
2018-11-11T14:13:26.328Z,50.40
2018-11-11T14:15:55.764Z,47.57
2018-11-11T14:18:24.445Z,47.17
2018-11-11T14:20:52.792Z,44.40
2018-11-11T14:23:21.604Z,46.57
2018-11-11T14:25:50.104Z,64.10
2018-11-11T14:28:18.485Z,80.87
2018-11-11T14:30:46.943Z,76.63
2018-11-11T14:33:15.369Z,89.53
2018-11-11T14:35:43.754Z,92.87
2018-11-11T14:38:12.198Z,131.73
2018-11-11T14:40:40.721Z,100.00
2018-11-11T14:43:09.166Z,116.73
2018-11-11T14:45:37.627Z,113.53
2018-11-11T14:48:06.024Z,107.53
2018-11-11T14:50:34.479Z,92.73
2018-11-11T14:53:03.244Z,85.37
2018-11-11T14:55:32.205Z,82.23
2018-11-11T14:58:01.400Z,83.23
2018-11-11T15:00:32.217Z,85.40
2018-11-11T15:03:16.949Z,84.17
2018-11-11T15:05:45.430Z,83.70
2018-11-11T15:08:13.854Z,78.70
2018-11-11T15:10:42.449Z,79.03
2018-11-11T15:13:11.637Z,82.00
2018-11-11T15:15:39.966Z,79.03
2018-11-11T15:18:08.744Z,72.30
2018-11-11T15:20:37.704Z,66.70
2018-11-11T15:23:06.531Z,63.70
2018-11-11T15:25:35.082Z,69.33
2018-11-11T15:28:03.535Z,85.47
2018-11-11T15:30:33.351Z,81.80
2018-11-11T15:33:02.329Z,86.23
2018-11-11T15:35:30.747Z,96.70
2018-11-11T15:37:59.237Z,80.13
2018-11-11T15:40:29.273Z,83.90
2018-11-11T15:42:57.998Z,83.97
2018-11-11T15:45:27.899Z,83.53
2018-11-11T15:47:56.347Z,82.70
2018-11-11T15:50:26.192Z,77.13
2018-11-11T15:52:55.883Z,49.17
2018-11-11T15:55:25.517Z,59.73
2018-11-11T15:57:54.099Z,57.00
2018-11-11T16:00:24.917Z,67.17
2018-11-11T16:02:53.319Z,59.77
2018-11-11T16:05:22.711Z,60.37
2018-11-11T16:07:52.827Z,57.47
2018-11-11T16:10:22.640Z,54.27
2018-11-11T16:12:51.306Z,51.37
2018-11-11T16:15:24.146Z,53.77
2018-11-11T16:17:54.112Z,55.30
2018-11-11T16:20:23.922Z,53.23
2018-11-11T16:22:53.632Z,52.47
2018-11-11T16:25:22.148Z,53.80
2018-11-11T16:27:50.849Z,66.10
2018-11-11T16:30:20.773Z,75.93
2018-11-11T16:32:49.726Z,68.80
2018-11-11T16:35:19.444Z,91.27
2018-11-11T16:37:47.953Z,101.23
2018-11-11T16:40:34.556Z,84.10
2018-11-11T16:43:03.319Z,92.60
2018-11-11T16:45:32.806Z,92.07
2018-11-11T16:48:01.364Z,90.27
2018-11-11T16:50:31.274Z,93.03
2018-11-11T16:53:01.382Z,95.70
2018-11-11T16:55:31.002Z,92.97
2018-11-11T16:58:00.207Z,88.43
2018-11-11T17:00:30.904Z,98.47
2018-11-11T17:03:00.588Z,102.57
2018-11-11T17:05:30.480Z,99.67
2018-11-11T17:07:58.928Z,94.20
2018-11-11T17:10:29.691Z,91.10
2018-11-11T17:12:59.624Z,88.87
2018-11-11T17:15:29.255Z,98.37
2018-11-11T17:17:57.659Z,96.07
2018-11-11T17:20:26.800Z,93.77
2018-11-11T17:22:57.572Z,95.77
2018-11-11T17:25:26.774Z,93.13
2018-11-11T17:27:55.334Z,91.97
2018-11-11T17:30:25.964Z,96.10
2018-11-11T17:32:55.114Z,91.30
2018-11-11T17:35:23.513Z,86.93
2018-11-11T17:37:51.911Z,84.70
2018-11-11T17:40:21.719Z,80.27
2018-11-11T17:42:51.245Z,77.67
2018-11-11T17:45:19.830Z,81.53
2018-11-11T17:47:49.034Z,76.57
2018-11-11T17:50:19.556Z,76.53
2018-11-11T17:52:47.964Z,76.77
2018-11-11T17:55:17.732Z,81.30
2018-11-11T17:57:46.428Z,138.87
2018-11-11T18:00:16.131Z,139.07
2018-11-11T18:02:44.920Z,131.17
2018-11-11T18:05:14.537Z,92.10
2018-11-11T18:07:42.951Z,102.07
2018-11-11T18:10:15.203Z,97.70
2018-11-11T18:12:43.635Z,103.10
2018-11-11T18:15:13.556Z,119.13
2018-11-11T18:17:42.414Z,120.57
2018-11-11T18:20:19.385Z,93.67
2018-11-11T18:22:48.264Z,86.07
2018-11-11T18:25:17.012Z,100.53
2018-11-11T18:27:45.461Z,100.93
2018-11-11T18:30:19.615Z,97.97
2018-11-11T18:32:48.323Z,100.77
2018-11-11T18:35:17.603Z,97.53
2018-11-11T18:37:46.009Z,82.50
2018-11-11T18:40:15.900Z,83.37
2018-11-11T18:42:44.587Z,91.80
2018-11-11T18:45:14.694Z,83.13
2018-11-11T18:47:43.513Z,109.53
2018-11-11T18:50:18.295Z,96.73
2018-11-11T18:52:46.912Z,95.63
2018-11-11T18:55:15.314Z,97.80
2018-11-11T18:57:44.128Z,88.07
2018-11-11T19:00:16.349Z,79.57
2018-11-11T19:02:46.028Z,77.07
2018-11-11T19:05:15.390Z,75.27
2018-11-11T19:07:44.066Z,76.80
2018-11-11T19:10:14.409Z,78.70
2018-11-11T19:12:43.982Z,68.47
2018-11-11T19:15:13.437Z,80.33
2018-11-11T19:17:43.420Z,67.27
2018-11-11T19:20:13.199Z,80.43
2018-11-11T19:22:41.584Z,77.83
2018-11-11T19:25:12.807Z,84.40
2018-11-11T19:27:42.173Z,92.23
2018-11-11T19:30:12.612Z,84.00
2018-11-11T19:32:41.643Z,86.53
2018-11-11T19:35:11.266Z,91.33
2018-11-11T19:37:39.635Z,76.30
2018-11-11T19:40:10.938Z,72.47
2018-11-11T19:42:39.691Z,71.57
2018-11-11T19:45:09.395Z,64.80
2018-11-11T19:47:38.823Z,62.83
2018-11-11T19:50:08.472Z,64.90
2018-11-11T19:52:36.987Z,68.13
2018-11-11T19:55:06.333Z,66.17
2018-11-11T19:57:34.859Z,61.87
2018-11-11T20:00:03.288Z,71.20
2018-11-11T20:02:31.888Z,75.40
2018-11-11T20:05:00.478Z,66.00
2018-11-11T20:07:28.952Z,70.93
2018-11-11T20:09:58.382Z,68.13
2018-11-11T20:12:26.824Z,69.47
2018-11-11T20:14:55.312Z,67.23
2018-11-11T20:17:24.038Z,68.17
2018-11-11T20:19:53.895Z,66.30
2018-11-11T20:22:22.940Z,63.50
2018-11-11T20:24:53.923Z,64.33
2018-11-11T20:27:22.487Z,62.80
2018-11-11T20:29:50.995Z,59.67
2018-11-11T20:32:19.620Z,60.70
2018-11-11T20:34:48.320Z,55.40
2018-11-11T20:37:17.052Z,56.90
2018-11-11T20:39:45.567Z,56.57
2018-11-11T20:42:14.167Z,53.67
2018-11-11T20:44:43.848Z,68.07
2018-11-11T20:47:12.272Z,61.97
2018-11-11T20:49:40.808Z,60.57
2018-11-11T20:52:09.868Z,55.23
2018-11-11T20:54:38.606Z,51.77
2018-11-11T20:57:07.796Z,51.17
2018-11-11T20:59:36.350Z,51.80
2018-11-11T21:02:05.034Z,48.23
2018-11-11T21:04:34.130Z,49.70
2018-11-11T21:07:03.239Z,46.33
2018-11-11T21:09:31.854Z,44.00
2018-11-11T21:12:04.020Z,54.63
2018-11-11T21:14:37.110Z,52.77
2018-11-11T21:17:10.726Z,50.50
2018-11-11T21:19:39.400Z,46.83
2018-11-11T21:22:12.726Z,52.20
2018-11-11T21:24:41.147Z,55.33
2018-11-11T21:27:09.695Z,54.33
2018-11-11T21:29:38.460Z,64.60
2018-11-11T21:32:07.111Z,72.80
2018-11-11T21:34:35.941Z,72.80
2018-11-11T21:37:04.426Z,81.60
2018-11-11T21:39:32.832Z,70.90
2018-11-11T21:42:01.341Z,68.83
2018-11-11T21:44:30.387Z,68.40
2018-11-11T21:46:58.848Z,59.97
2018-11-11T21:49:27.813Z,71.67
2018-11-11T21:51:56.285Z,72.73
2018-11-11T21:54:24.931Z,84.13
2018-11-11T21:56:53.331Z,80.23
2018-11-11T21:59:21.857Z,61.13
2018-11-11T22:01:50.315Z,64.17
2018-11-11T22:04:18.818Z,56.80
2018-11-11T22:06:47.954Z,66.50
2018-11-11T22:09:17.278Z,56.37
2018-11-11T22:11:48.120Z,56.87
2018-11-11T22:14:16.488Z,58.33
2018-11-11T22:16:44.984Z,54.13
2018-11-11T22:19:13.376Z,55.23
2018-11-11T22:21:41.816Z,50.90
2018-11-11T22:24:10.182Z,49.37
2018-11-11T22:26:38.563Z,49.00
2018-11-11T22:29:07.679Z,55.03
2018-11-11T22:31:37.015Z,53.53
2018-11-11T22:34:05.767Z,48.77
2018-11-11T22:36:34.329Z,47.23
2018-11-11T22:39:02.837Z,46.30
2018-11-11T22:41:31.263Z,41.23
2018-11-11T22:43:59.687Z,41.60
2018-11-11T22:46:28.115Z,51.63
2018-11-11T22:48:56.711Z,41.50
2018-11-11T22:51:25.752Z,46.70
2018-11-11T22:53:54.178Z,49.67
2018-11-11T22:56:22.579Z,54.47
2018-11-11T22:58:51.048Z,48.10
2018-11-11T23:01:21.428Z,50.63
2018-11-11T23:03:50.384Z,48.93
2018-11-11T23:06:18.795Z,68.43
2018-11-11T23:08:47.540Z,67.67
2018-11-11T23:11:16.533Z,76.33
2018-11-11T23:13:44.955Z,72.87
2018-11-11T23:16:13.434Z,68.27
2018-11-11T23:18:41.938Z,75.47
2018-11-11T23:21:10.363Z,81.47
2018-11-11T23:23:38.910Z,77.87
2018-11-11T23:26:07.408Z,79.83
2018-11-11T23:28:36.434Z,80.57
2018-11-11T23:31:05.091Z,79.93
2018-11-11T23:33:33.581Z,77.00
2018-11-11T23:36:02.208Z,77.23
2018-11-11T23:38:30.627Z,90.27
2018-11-11T23:40:59.032Z,95.53
2018-11-11T23:43:27.440Z,91.10
2018-11-11T23:45:55.811Z,88.57
2018-11-11T23:48:24.281Z,88.40
2018-11-11T23:50:52.698Z,88.23
2018-11-11T23:53:21.115Z,86.80
2018-11-11T23:55:49.515Z,85.43
2018-11-11T23:58:17.887Z,84.23
